createdAt,value
2019-03-31T00:00:28.668Z,101275.18
2019-03-31T00:02:56.234Z,101274.04
2019-03-31T00:05:23.739Z,101280.87
2019-03-31T00:07:51.296Z,101278.17
2019-03-31T00:10:18.767Z,101283.31
2019-03-31T00:12:46.267Z,101288.11
2019-03-31T00:15:13.783Z,101290.53
2019-03-31T00:17:41.414Z,101282.70
2019-03-31T00:20:08.922Z,101281.97
2019-03-31T00:22:36.476Z,101280.53
2019-03-31T00:25:04.039Z,101288.23
2019-03-31T00:27:31.549Z,101272.73
2019-03-31T00:29:59.033Z,101284.61
2019-03-31T00:32:26.568Z,101286.44
2019-03-31T00:34:54.136Z,101288.55
2019-03-31T00:37:21.736Z,101291.53
2019-03-31T00:39:49.280Z,101300.10
2019-03-31T00:42:16.840Z,101300.62
2019-03-31T00:44:44.311Z,101294.17
2019-03-31T00:47:11.823Z,101297.66
2019-03-31T00:49:39.298Z,101297.61
2019-03-31T00:52:06.783Z,101304.14
2019-03-31T00:54:34.318Z,101293.33
2019-03-31T00:57:01.821Z,101295.15
2019-03-31T00:59:29.359Z,101295.52
2019-03-31T01:02:00.682Z,101299.38
2019-03-31T01:04:30.674Z,101291.18
2019-03-31T01:06:58.994Z,101291.65
2019-03-31T01:09:28.928Z,101289.45
2019-03-31T01:11:56.894Z,101296.97
2019-03-31T01:14:24.697Z,101295.30
2019-03-31T01:16:52.822Z,101302.17
2019-03-31T01:19:20.808Z,101302.16
2019-03-31T01:21:48.278Z,101302.95
2019-03-31T01:24:15.807Z,101305.19
2019-03-31T01:26:43.292Z,101306.59
2019-03-31T01:29:12.377Z,101310.98
2019-03-31T01:31:50.088Z,101311.06
2019-03-31T01:34:09.691Z,101282.89
2019-03-31T01:36:37.207Z,101310.97
2019-03-31T01:39:06.682Z,101305.72
2019-03-31T01:41:34.171Z,101308.77
2019-03-31T01:44:01.656Z,101310.48
2019-03-31T01:46:29.121Z,101316.11
2019-03-31T01:48:56.613Z,101315.23
2019-03-31T01:51:24.075Z,101319.60
2019-03-31T01:53:51.590Z,101319.62
2019-03-31T01:56:19.804Z,101326.23
2019-03-31T01:58:47.298Z,101324.02
2019-03-31T02:01:15.629Z,101328.33
2019-03-31T02:03:43.135Z,101329.20
2019-03-31T02:06:10.615Z,101333.56
2019-03-31T02:08:38.193Z,101336.58
2019-03-31T02:11:05.680Z,101342.70
2019-03-31T02:13:33.174Z,101350.03
2019-03-31T02:16:03.219Z,101344.02
2019-03-31T02:18:30.680Z,101348.26
2019-03-31T02:20:58.169Z,101348.70
2019-03-31T02:23:25.659Z,101348.30
2019-03-31T02:25:53.296Z,101346.98
2019-03-31T02:28:20.761Z,101344.38
2019-03-31T02:30:48.279Z,101344.00
2019-03-31T02:33:15.737Z,101340.05
2019-03-31T02:35:43.245Z,101343.13
2019-03-31T02:38:10.819Z,101341.28
2019-03-31T02:40:38.329Z,101339.09
2019-03-31T02:43:05.813Z,101336.98
2019-03-31T02:45:33.324Z,101340.08
2019-03-31T02:48:00.835Z,101339.73
2019-03-31T02:50:58.576Z,101343.61
2019-03-31T02:53:26.069Z,101346.50
2019-03-31T02:55:54.768Z,101342.73
2019-03-31T02:58:22.681Z,101348.86
2019-03-31T03:00:50.216Z,101344.97
2019-03-31T03:03:18.495Z,101348.37
2019-03-31T03:05:46.655Z,101353.61
2019-03-31T03:08:16.022Z,101354.08
2019-03-31T03:10:43.964Z,101357.52
2019-03-31T03:13:13.554Z,101359.19
2019-03-31T03:16:26.077Z,101361.49
2019-03-31T03:18:53.568Z,101364.45
2019-03-31T03:21:24.040Z,101360.99
2019-03-31T03:23:50.595Z,101362.30
2019-03-31T03:26:18.313Z,101362.26
2019-03-31T03:28:45.889Z,101360.99
2019-03-31T03:31:16.290Z,101365.74
2019-03-31T03:33:43.575Z,101365.80
2019-03-31T03:36:11.394Z,101366.53
2019-03-31T03:38:38.860Z,101367.42
2019-03-31T03:41:06.370Z,101371.31
2019-03-31T03:43:33.860Z,101367.42
2019-03-31T03:46:01.374Z,101378.23
2019-03-31T03:48:28.854Z,101385.58
2019-03-31T03:50:56.364Z,101386.09
2019-03-31T03:53:23.837Z,101394.48
2019-03-31T03:55:51.343Z,101388.77
2019-03-31T03:58:18.882Z,101394.84
2019-03-31T04:00:46.389Z,101387.49
2019-03-31T04:03:29.232Z,101388.72
2019-03-31T04:05:43.271Z,101397.39
2019-03-31T04:08:10.856Z,101392.63
2019-03-31T04:11:20.767Z,101359.34
2019-03-31T04:13:46.290Z,101390.95
2019-03-31T04:16:13.893Z,101400.07
2019-03-31T04:18:41.434Z,101405.73
2019-03-31T04:21:09.037Z,101413.02
2019-03-31T04:23:36.513Z,101408.23
2019-03-31T04:26:04.043Z,101415.23
2019-03-31T04:28:31.538Z,101409.98
2019-03-31T04:30:59.072Z,101406.49
2019-03-31T04:33:26.560Z,101418.70
2019-03-31T04:35:54.104Z,101427.40
2019-03-31T04:38:21.594Z,101426.14
2019-03-31T04:40:49.115Z,101427.42
2019-03-31T04:43:16.583Z,101424.81
2019-03-31T04:45:44.103Z,101435.70
2019-03-31T04:48:11.595Z,101425.27
2019-03-31T04:50:39.144Z,101439.66
2019-03-31T04:53:06.705Z,101433.13
2019-03-31T04:55:34.227Z,101437.05
2019-03-31T04:58:01.752Z,101437.45
2019-03-31T05:00:29.230Z,101440.12
2019-03-31T05:02:56.746Z,101450.09
2019-03-31T05:05:24.302Z,101455.30
2019-03-31T05:07:51.860Z,101457.05
2019-03-31T05:10:19.347Z,101468.75
2019-03-31T05:12:46.864Z,101473.11
2019-03-31T05:15:14.354Z,101470.94
2019-03-31T05:17:41.869Z,101472.22
2019-03-31T05:20:09.433Z,101483.98
2019-03-31T05:22:36.956Z,101488.33
2019-03-31T05:25:04.561Z,101498.75
2019-03-31T05:27:32.080Z,101505.24
2019-03-31T05:29:59.562Z,101510.03
2019-03-31T05:32:27.186Z,101510.04
2019-03-31T05:34:54.716Z,101514.82
2019-03-31T05:37:22.218Z,101525.64
2019-03-31T05:39:49.865Z,101533.88
2019-03-31T05:42:17.395Z,101534.73
2019-03-31T05:44:44.864Z,101539.91
2019-03-31T05:47:12.391Z,101534.70
2019-03-31T05:49:39.902Z,101543.77
2019-03-31T05:52:07.430Z,101551.59
2019-03-31T05:54:35.257Z,101554.64
2019-03-31T05:57:03.175Z,101557.67
2019-03-31T05:59:30.733Z,101558.16
2019-03-31T06:01:58.295Z,101559.86
2019-03-31T06:04:33.127Z,101555.52
2019-03-31T06:06:55.275Z,101563.31
2019-03-31T06:09:22.762Z,101568.95
2019-03-31T06:11:53.262Z,101564.16
2019-03-31T06:14:19.675Z,101567.18
2019-03-31T06:16:47.373Z,101570.22
2019-03-31T06:19:14.871Z,101572.41
2019-03-31T06:21:42.419Z,101578.55
2019-03-31T06:24:09.907Z,101566.83
2019-03-31T06:26:37.529Z,101564.69
2019-03-31T06:29:05.010Z,101570.77
2019-03-31T06:31:32.531Z,101582.03
2019-03-31T06:34:00.056Z,101578.14
2019-03-31T06:36:27.562Z,101577.69
2019-03-31T06:38:55.060Z,101575.98
2019-03-31T06:41:22.560Z,101583.77
2019-03-31T06:43:50.094Z,101585.05
2019-03-31T06:46:17.684Z,101594.63
2019-03-31T06:48:45.199Z,101592.45
2019-03-31T06:51:12.678Z,101595.95
2019-03-31T06:53:40.196Z,101602.47
2019-03-31T06:56:07.700Z,101604.20
2019-03-31T06:58:35.234Z,101607.25
2019-03-31T07:01:02.862Z,101607.23
2019-03-31T07:03:30.395Z,101604.20
2019-03-31T07:05:57.974Z,101612.48
2019-03-31T07:08:25.488Z,101616.81
2019-03-31T07:10:53.010Z,101608.98
2019-03-31T07:13:20.525Z,101609.44
2019-03-31T07:15:48.105Z,101616.35
2019-03-31T07:18:16.043Z,101615.91
2019-03-31T07:20:43.645Z,101626.76
2019-03-31T07:23:11.328Z,101622.87
2019-03-31T07:25:38.817Z,101629.80
2019-03-31T07:28:06.393Z,101639.79
2019-03-31T07:30:33.867Z,101638.50
2019-03-31T07:33:01.410Z,101647.20
2019-03-31T07:35:28.910Z,101648.03
2019-03-31T07:37:56.690Z,101647.19
2019-03-31T07:40:24.413Z,101650.21
2019-03-31T07:42:52.363Z,101642.81
2019-03-31T07:45:20.058Z,101645.00
2019-03-31T07:47:47.559Z,101645.84
2019-03-31T07:50:15.872Z,101658.03
2019-03-31T07:52:43.626Z,101659.30
2019-03-31T07:55:11.551Z,101658.45
2019-03-31T07:57:39.121Z,101651.92
2019-03-31T08:00:10.474Z,101648.88
2019-03-31T08:02:37.998Z,101650.99
2019-03-31T08:05:07.962Z,101652.25
2019-03-31T08:07:36.208Z,101653.09
2019-03-31T08:10:04.435Z,101650.94
2019-03-31T08:12:31.971Z,101654.77
2019-03-31T08:14:59.499Z,101655.68
2019-03-31T08:17:27.004Z,101648.70
2019-03-31T08:19:54.567Z,101652.09
2019-03-31T08:22:22.093Z,101651.25
2019-03-31T08:24:49.578Z,101648.20
2019-03-31T08:27:18.942Z,101649.03
2019-03-31T08:29:53.064Z,101650.30
2019-03-31T08:32:15.856Z,101653.33
2019-03-31T08:34:43.611Z,101662.89
2019-03-31T08:37:11.344Z,101660.74
2019-03-31T08:39:38.961Z,101665.09
2019-03-31T08:42:06.550Z,101668.56
2019-03-31T08:44:34.091Z,101665.03
2019-03-31T08:47:01.631Z,101679.81
2019-03-31T08:49:29.351Z,101686.72
2019-03-31T08:51:56.864Z,101690.33
2019-03-31T08:54:24.505Z,101695.57
2019-03-31T08:56:52.081Z,101689.33
2019-03-31T08:59:19.660Z,101692.03
2019-03-31T09:01:47.137Z,101693.78
2019-03-31T09:04:14.644Z,101691.50
2019-03-31T09:06:42.151Z,101704.49
2019-03-31T09:09:09.700Z,101701.50
2019-03-31T09:11:37.210Z,101700.95
2019-03-31T09:14:04.982Z,101705.36
2019-03-31T09:16:32.637Z,101709.26
2019-03-31T09:19:00.244Z,101712.67
2019-03-31T09:21:27.825Z,101652.22
2019-03-31T09:23:55.744Z,101718.28
2019-03-31T09:26:23.231Z,101710.70
2019-03-31T09:28:50.786Z,101720.72
2019-03-31T09:31:18.287Z,101719.27
2019-03-31T09:33:45.909Z,101718.34
2019-03-31T09:36:16.530Z,101714.19
2019-03-31T09:38:43.023Z,101724.55
2019-03-31T09:41:10.542Z,101732.55
2019-03-31T09:43:38.040Z,101730.74
2019-03-31T09:46:05.764Z,101735.52
2019-03-31T09:48:33.321Z,101737.07
2019-03-31T09:51:04.184Z,101743.61
2019-03-31T09:53:31.699Z,101737.07
2019-03-31T09:55:59.176Z,101737.09
2019-03-31T09:58:26.782Z,101735.75
2019-03-31T10:00:54.646Z,101745.01
2019-03-31T10:03:22.240Z,101731.91
2019-03-31T10:05:49.989Z,101743.20
2019-03-31T10:08:21.545Z,101734.52
2019-03-31T10:10:47.352Z,101741.80
2019-03-31T10:13:14.842Z,101737.83
2019-03-31T10:15:42.378Z,101738.59
2019-03-31T10:18:09.938Z,101738.58
2019-03-31T10:20:37.967Z,101733.28
2019-03-31T10:23:06.101Z,101738.59
2019-03-31T10:25:34.334Z,101701.70
2019-03-31T10:28:02.264Z,101734.66
2019-03-31T10:30:34.549Z,101737.65
2019-03-31T10:33:03.323Z,101747.60
2019-03-31T10:35:31.179Z,101744.40
2019-03-31T10:37:58.655Z,101748.00
2019-03-31T10:40:26.283Z,101746.36
2019-03-31T10:42:53.867Z,101753.83
2019-03-31T10:45:23.999Z,101751.59
2019-03-31T10:47:51.514Z,101756.33
2019-03-31T10:50:19.215Z,101755.06
2019-03-31T10:52:46.941Z,101751.55
2019-03-31T10:55:14.748Z,101752.04
2019-03-31T10:57:42.271Z,101750.62
2019-03-31T11:00:10.605Z,101753.60
2019-03-31T11:02:38.111Z,101755.30
2019-03-31T11:05:06.972Z,101758.37
2019-03-31T11:07:34.770Z,101757.11
2019-03-31T11:10:02.349Z,101764.09
2019-03-31T11:12:29.845Z,101759.17
2019-03-31T11:14:57.359Z,101756.88
2019-03-31T11:17:24.834Z,101749.75
2019-03-31T11:19:52.377Z,101755.31
2019-03-31T11:22:33.319Z,101756.62
2019-03-31T11:25:00.903Z,101755.78
2019-03-31T11:27:28.386Z,101753.45
2019-03-31T11:29:55.913Z,101756.73
2019-03-31T11:32:23.396Z,101754.00
2019-03-31T11:34:50.918Z,101761.50
2019-03-31T11:37:18.413Z,101767.80
2019-03-31T11:39:45.935Z,101768.11
2019-03-31T11:42:13.418Z,101763.84
2019-03-31T11:44:40.905Z,101757.44
2019-03-31T11:47:08.914Z,101767.92
2019-03-31T11:49:36.414Z,101763.61
2019-03-31T11:52:03.962Z,101760.23
2019-03-31T11:54:31.473Z,101765.36
2019-03-31T11:56:59.004Z,101768.38
2019-03-31T11:59:26.520Z,101761.02
2019-03-31T12:01:54.040Z,101758.53
2019-03-31T12:04:21.531Z,101754.09
2019-03-31T12:06:49.063Z,101760.80
2019-03-31T12:09:16.552Z,101749.91
2019-03-31T12:11:45.632Z,101748.81
2019-03-31T12:14:13.453Z,101743.13
2019-03-31T12:16:40.970Z,101749.91
2019-03-31T12:19:08.548Z,101747.84
2019-03-31T12:21:36.072Z,101745.60
2019-03-31T12:24:03.595Z,101744.67
2019-03-31T12:26:31.107Z,101742.64
2019-03-31T12:28:58.636Z,101740.61
2019-03-31T12:31:26.327Z,101740.36
2019-03-31T12:33:53.811Z,101742.50
2019-03-31T12:36:21.344Z,101739.78
2019-03-31T12:38:48.862Z,101741.98
2019-03-31T12:41:16.381Z,101734.89
2019-03-31T12:43:43.867Z,101732.50
2019-03-31T12:46:11.437Z,101731.53
2019-03-31T12:48:39.956Z,101742.53
2019-03-31T12:51:07.477Z,101736.32
2019-03-31T12:53:35.003Z,101736.47
2019-03-31T12:56:03.643Z,101730.33
2019-03-31T12:58:33.040Z,101729.69
2019-03-31T13:01:02.833Z,101730.92
2019-03-31T13:03:30.968Z,101724.08
2019-03-31T13:05:58.656Z,101725.91
2019-03-31T13:08:26.251Z,101719.30
2019-03-31T13:10:53.763Z,101725.67
2019-03-31T13:13:21.275Z,101720.34
2019-03-31T13:15:48.763Z,101720.34
2019-03-31T13:18:16.380Z,101719.58
2019-03-31T13:20:43.880Z,101724.50
2019-03-31T13:23:11.417Z,101715.19
2019-03-31T13:25:38.891Z,101720.34
2019-03-31T13:28:06.416Z,101718.27
2019-03-31T13:30:33.957Z,101722.16
2019-03-31T13:33:02.008Z,101711.67
2019-03-31T13:35:29.488Z,101719.74
2019-03-31T13:38:10.409Z,101710.66
2019-03-31T13:40:26.409Z,101708.03
2019-03-31T13:42:53.915Z,101712.16
2019-03-31T13:45:21.400Z,101706.67
2019-03-31T13:47:48.933Z,101704.13
2019-03-31T13:50:16.782Z,101705.80
2019-03-31T13:52:44.304Z,101701.02
2019-03-31T13:55:11.909Z,101698.95
2019-03-31T13:57:41.813Z,101704.46
2019-03-31T14:00:10.917Z,101705.73
2019-03-31T14:02:38.565Z,101708.39
2019-03-31T14:05:06.550Z,101709.34
2019-03-31T14:07:34.152Z,101703.92
2019-03-31T14:10:01.667Z,101704.57
2019-03-31T14:12:29.172Z,101699.11
2019-03-31T14:14:56.663Z,101700.95
2019-03-31T14:17:25.656Z,101703.48
2019-03-31T14:19:53.141Z,101698.98
2019-03-31T14:22:20.768Z,101699.57
2019-03-31T14:24:48.241Z,101694.98
2019-03-31T14:27:15.799Z,101687.31
2019-03-31T14:29:43.263Z,101703.08
2019-03-31T14:32:10.784Z,101698.88
2019-03-31T14:34:38.269Z,101695.86
2019-03-31T14:37:05.770Z,101699.84
2019-03-31T14:39:33.255Z,101702.94
2019-03-31T14:42:00.756Z,101697.13
2019-03-31T14:44:28.401Z,101696.59
2019-03-31T14:46:55.882Z,101697.53
2019-03-31T14:49:25.872Z,101692.69
2019-03-31T14:51:52.783Z,101693.68
2019-03-31T14:54:20.362Z,101687.42
2019-03-31T14:56:47.837Z,101688.66
2019-03-31T14:59:15.414Z,101678.21
2019-03-31T15:01:43.941Z,101693.89
2019-03-31T15:04:11.439Z,101690.03
2019-03-31T15:06:38.904Z,101694.45
2019-03-31T15:09:07.354Z,101684.60
2019-03-31T15:11:34.877Z,101692.38
2019-03-31T15:14:02.741Z,101684.39
2019-03-31T15:16:30.233Z,101678.27
2019-03-31T15:18:57.741Z,101676.38
2019-03-31T15:21:25.380Z,101676.67
2019-03-31T15:23:52.891Z,101685.86
2019-03-31T15:26:20.375Z,101683.12
2019-03-31T15:28:48.045Z,101690.87
2019-03-31T15:31:15.888Z,101688.34
2019-03-31T15:33:43.472Z,101679.45
2019-03-31T15:36:10.969Z,101686.16
2019-03-31T15:38:38.479Z,101683.65
2019-03-31T15:41:05.948Z,101686.95
2019-03-31T15:43:33.445Z,101687.22
2019-03-31T15:46:00.924Z,101683.39
2019-03-31T15:48:28.454Z,101686.15
2019-03-31T15:50:55.941Z,101685.97
2019-03-31T15:53:23.547Z,101693.94
2019-03-31T15:55:51.138Z,101690.61
2019-03-31T15:58:18.701Z,101684.11
2019-03-31T16:00:46.189Z,101686.31
2019-03-31T16:03:14.352Z,101690.37
2019-03-31T16:05:41.888Z,101684.00
2019-03-31T16:08:08.907Z,101684.41
2019-03-31T16:10:35.855Z,101681.56
2019-03-31T16:13:03.126Z,101684.96
2019-03-31T16:15:30.158Z,101691.05
2019-03-31T16:17:57.105Z,101691.27
2019-03-31T16:20:24.090Z,101682.49
2019-03-31T16:22:51.028Z,101682.58
2019-03-31T16:25:29.806Z,101685.05
2019-03-31T16:27:57.405Z,101684.30
2019-03-31T16:30:24.625Z,101682.78
2019-03-31T16:33:07.607Z,101686.41
2019-03-31T16:35:34.590Z,101684.66
2019-03-31T16:38:01.536Z,101685.50
2019-03-31T16:40:28.511Z,101691.16
2019-03-31T16:42:55.465Z,101692.58
2019-03-31T16:45:22.544Z,101687.58
2019-03-31T16:47:49.510Z,101691.02
2019-03-31T16:50:16.504Z,101687.99
2019-03-31T16:52:43.553Z,101691.44
2019-03-31T16:55:11.261Z,101694.58
2019-03-31T16:57:38.209Z,101693.53
2019-03-31T17:00:05.756Z,101689.67
2019-03-31T17:02:32.849Z,101698.01
2019-03-31T17:05:21.714Z,101691.91
2019-03-31T17:07:40.473Z,101697.77
2019-03-31T17:10:08.063Z,101694.66
2019-03-31T17:12:34.991Z,101700.45
2019-03-31T17:15:02.846Z,101700.06
2019-03-31T17:17:29.892Z,101700.55
2019-03-31T17:20:06.782Z,101700.55
2019-03-31T17:22:34.166Z,101709.31
2019-03-31T17:25:03.035Z,101712.02
2019-03-31T17:27:30.064Z,101710.83
2019-03-31T17:29:57.034Z,101705.63
2019-03-31T17:32:23.972Z,101700.39
2019-03-31T17:34:50.961Z,101707.41
2019-03-31T17:37:17.917Z,101706.69
2019-03-31T17:39:44.930Z,101709.69
2019-03-31T17:42:13.777Z,101709.34
2019-03-31T17:44:42.452Z,101702.86
2019-03-31T17:47:09.414Z,101710.83
2019-03-31T17:49:36.483Z,101705.58
2019-03-31T17:52:05.240Z,101706.09
2019-03-31T17:54:32.239Z,101710.94
2019-03-31T17:56:59.209Z,101719.62
2019-03-31T17:59:26.252Z,101718.86
2019-03-31T18:01:53.222Z,101718.44
2019-03-31T18:04:20.323Z,101726.72
2019-03-31T18:06:47.271Z,101734.16
2019-03-31T18:09:14.202Z,101727.64
2019-03-31T18:11:41.183Z,101733.78
2019-03-31T18:14:08.154Z,101737.27
2019-03-31T18:16:35.210Z,101743.34
2019-03-31T18:19:02.215Z,101731.69
2019-03-31T18:21:29.321Z,101743.94
2019-03-31T18:23:56.279Z,101744.83
2019-03-31T18:26:23.348Z,101747.88
2019-03-31T18:28:50.519Z,101748.34
2019-03-31T18:31:49.745Z,101748.81
2019-03-31T18:34:16.703Z,101749.25
2019-03-31T18:36:43.676Z,101747.11
2019-03-31T18:39:10.611Z,101753.62
2019-03-31T18:41:37.585Z,101744.51
2019-03-31T18:44:04.556Z,101753.64
2019-03-31T18:46:31.746Z,101760.62
2019-03-31T18:48:58.697Z,101760.62
2019-03-31T18:51:25.696Z,101764.50
2019-03-31T18:54:09.815Z,101764.50
2019-03-31T18:56:56.434Z,101774.93
2019-03-31T18:59:43.023Z,101780.13
2019-03-31T19:02:28.606Z,101793.13
2019-03-31T19:05:27.677Z,101787.95
2019-03-31T19:08:21.989Z,101787.94
2019-03-31T19:11:15.033Z,101792.27
2019-03-31T19:14:00.864Z,101797.86
2019-03-31T19:16:46.032Z,101797.00
2019-03-31T19:19:29.152Z,101800.86
2019-03-31T19:22:05.317Z,101803.02
2019-03-31T19:24:48.413Z,101803.39
2019-03-31T19:27:33.504Z,101808.20
2019-03-31T19:30:16.504Z,101812.45
2019-03-31T19:33:02.085Z,101806.75
2019-03-31T19:36:04.180Z,101810.16
2019-03-31T19:38:59.668Z,101804.96
2019-03-31T19:41:58.161Z,101808.43
2019-03-31T19:44:34.520Z,101812.28
2019-03-31T19:47:28.678Z,101818.31
2019-03-31T19:50:15.246Z,101821.30
2019-03-31T19:52:50.075Z,101824.31
2019-03-31T19:56:06.956Z,101825.18
2019-03-31T19:59:00.281Z,101825.89
2019-03-31T20:01:49.954Z,101836.70
2019-03-31T20:04:29.757Z,101829.83
2019-03-31T20:07:22.192Z,101835.75
2019-03-31T20:10:00.378Z,101841.42
2019-03-31T20:12:42.641Z,101838.30
2019-03-31T20:15:44.293Z,101840.89
2019-03-31T20:18:21.096Z,101797.77
2019-03-31T20:20:58.030Z,101843.84
2019-03-31T20:23:33.712Z,101834.58
2019-03-31T20:26:18.993Z,101841.60
2019-03-31T20:29:15.396Z,101842.00
2019-03-31T20:31:54.653Z,101840.64
2019-03-31T20:34:27.711Z,101840.53
2019-03-31T20:37:03.498Z,101838.44
2019-03-31T20:39:56.963Z,101844.65
2019-03-31T20:42:42.207Z,101849.05
2019-03-31T20:45:09.565Z,101848.94
2019-03-31T20:47:36.645Z,101853.27
2019-03-31T20:50:04.391Z,101855.55
2019-03-31T20:52:31.361Z,101850.52
2019-03-31T20:54:58.306Z,101854.84
2019-03-31T20:57:25.298Z,101853.85
2019-03-31T20:59:52.300Z,101854.77
2019-03-31T21:02:19.422Z,101853.72
2019-03-31T21:04:46.384Z,101852.03
2019-03-31T21:07:13.463Z,101842.43
2019-03-31T21:09:45.159Z,101850.99
2019-03-31T21:12:09.442Z,101857.97
2019-03-31T21:14:36.384Z,101860.20
2019-03-31T21:17:03.377Z,101855.79
2019-03-31T21:19:30.800Z,101857.86
2019-03-31T21:21:57.775Z,101865.56
2019-03-31T21:24:24.727Z,101871.85
2019-03-31T21:26:53.164Z,101855.48
2019-03-31T21:29:20.630Z,101869.02
2019-03-31T21:31:47.618Z,101868.34
2019-03-31T21:34:14.572Z,101867.91
2019-03-31T21:36:41.531Z,101868.24
2019-03-31T21:39:10.082Z,101870.75
2019-03-31T21:41:37.071Z,101878.49
2019-03-31T21:44:04.153Z,101866.33
2019-03-31T21:46:31.107Z,101866.33
2019-03-31T21:48:58.143Z,101870.61
2019-03-31T21:51:25.317Z,101865.42
2019-03-31T21:53:52.291Z,101854.99
2019-03-31T21:56:19.254Z,101863.59
2019-03-31T21:58:46.258Z,101855.91
2019-03-31T22:01:13.524Z,101860.95
2019-03-31T22:03:40.715Z,101857.91
2019-03-31T22:06:07.661Z,101863.05
2019-03-31T22:08:34.683Z,101856.63
2019-03-31T22:11:01.612Z,101857.81
2019-03-31T22:13:28.703Z,101857.38
2019-03-31T22:15:55.743Z,101855.94
2019-03-31T22:18:22.732Z,101859.83
2019-03-31T22:20:49.782Z,101858.00
2019-03-31T22:23:16.768Z,101851.13
2019-03-31T22:25:43.717Z,101850.22
2019-03-31T22:28:10.759Z,101860.05
2019-03-31T22:30:37.692Z,101860.09
2019-03-31T22:33:05.092Z,101858.75
2019-03-31T22:35:32.065Z,101863.02
2019-03-31T22:38:02.576Z,101857.78
2019-03-31T22:40:29.869Z,101856.38
2019-03-31T22:42:57.077Z,101854.16
2019-03-31T22:45:24.039Z,101857.72
2019-03-31T22:47:51.037Z,101859.89
2019-03-31T22:50:18.030Z,101853.84
2019-03-31T22:52:44.966Z,101850.33
2019-03-31T22:55:11.925Z,101852.39
2019-03-31T22:57:38.886Z,101851.56
2019-03-31T23:00:07.251Z,101853.69
2019-03-31T23:02:35.421Z,101854.96
2019-03-31T23:05:02.397Z,101847.52
2019-03-31T23:07:29.342Z,101847.95
2019-03-31T23:09:56.318Z,101848.92
2019-03-31T23:12:23.265Z,101850.70
2019-03-31T23:14:50.283Z,101850.91
2019-03-31T23:17:17.218Z,101843.57
2019-03-31T23:19:44.317Z,101846.16
2019-03-31T23:22:11.255Z,101849.56
2019-03-31T23:24:38.312Z,101845.61
2019-03-31T23:27:05.241Z,101843.52
2019-03-31T23:29:32.214Z,101842.65
2019-03-31T23:31:59.142Z,101849.56
2019-03-31T23:34:26.134Z,101842.64
2019-03-31T23:36:53.077Z,101839.25
2019-03-31T23:39:20.190Z,101836.66
2019-03-31T23:41:47.132Z,101836.48
2019-03-31T23:44:14.100Z,101834.94
2019-03-31T23:46:41.056Z,101825.21
2019-03-31T23:49:08.034Z,101820.88
2019-03-31T23:51:34.978Z,101819.09
2019-03-31T23:54:01.978Z,101829.34
2019-03-31T23:56:28.924Z,101822.39
2019-03-31T23:58:55.929Z,101818.48
